Time;durP1;ratioP1;P1;durP2;ratioP2;P2;SDS_P1;SDS_P2;PMS_P1;PMS_P2;Temp;Humidity;BMP_temperature;BMP_pressure;BME280_temperature;BME280_humidity;BME280_pressure;Samples;Min_cycle;Max_cycle;Signal;HPM_P1;HPM_P2
2023/10/04 00:00:36;;;;;;;;;;;;;;;;;;6149767;23;20387;-88
2023/10/04 00:03:02;;;;;;;;;;;;;;;;;;6175171;23;19987;-87
2023/10/04 00:05:28;;;;;;;;;;;;;;;;;;6176248;23;19923;-88
2023/10/04 00:07:59;;;;;;;;;;;;;;;;;;6152957;23;19985;-88
2023/10/04 00:10:25;;;;;;;;;;;;;;;;;;6177216;23;19987;-88
2023/10/04 00:12:50;;;;;;;;;;;;;;;;;;6152785;23;19947;-87
2023/10/04 00:15:25;;;;;;;;;;;;;;;;;;6206907;23;19926;-87
2023/10/04 00:17:52;;;;;;;;;;;;;;;;;;6151098;23;19974;-87
2023/10/04 00:20:18;;;;;;;;;;;;;;;;;;6178404;23;19924;-87
2023/10/04 00:22:46;;;;;;;;;;;;;;;;;;6174669;23;19927;-87
2023/10/04 00:25:12;;;;;;;;;;;;;;;;;;6175905;23;20348;-87
2023/10/04 00:27:41;;;;;;;;;;;;;;;;;;6174798;23;20416;-87
2023/10/04 00:30:07;;;;;;;;;;;;;;;;;;6203656;23;20248;-87
2023/10/04 00:32:34;;;;;;;;;;;;;;;;;;6175133;23;19999;-87
2023/10/04 00:35:00;;;;;;;;;;;;;;;;;;6177271;23;20348;-87
2023/10/04 00:37:26;;;;;;;;;;;;;;;;;;6175345;23;19921;-87
2023/10/04 00:39:53;;;;;;;;;;;;;;;;;;6174344;23;19920;-87
2023/10/04 00:42:20;;;;;;;;;;;;;;;;;;6178251;23;19920;-87
2023/10/04 00:44:47;;;;;;;;;;;;;;;;;;6149069;23;19927;-87
2023/10/04 00:47:13;;;;;;;;;;;;;;;;;;6177289;23;19919;-87
2023/10/04 00:49:45;;;;;;;;;;;;;;;;;;6150273;23;19927;-87
2023/10/04 00:52:11;;;;;;;;;;;;;;;;;;6177435;23;19919;-87
2023/10/04 00:54:37;;;;;;;;;;;;;;;;;;6172963;23;19915;-87
2023/10/04 00:57:04;;;;;;;;;;;;;;;;;;6177067;23;19974;-87
2023/10/04 00:59:31;;;;;;;;;;;;;;;;;;6174034;23;20337;-88
2023/10/04 01:01:57;;;;;;;;;;;;;;;;;;6153158;23;19926;-88
2023/10/04 01:04:25;;;;;;;;;;;;;;;;;;6176058;23;19928;-88
2023/10/04 01:06:51;;;;;;;;;;;;;;;;;;6174768;23;19926;-87
2023/10/04 01:09:19;;;;;;;;;;;;;;;;;;6151294;23;19920;-88
2023/10/04 01:11:45;;;;;;;;;;;;;;;;;;6174797;23;19926;-88
2023/10/04 01:14:27;;;;;;;;;;;;;;;;;;6176804;23;19920;-88
2023/10/04 01:16:54;;;;;;;;;;;;;;;;;;6175283;23;19959;-88
2023/10/04 01:19:22;;;;;;;;;;;;;;;;;;6177142;23;19919;-88
2023/10/04 01:21:48;;;;;;;;;;;;;;;;;;6175229;23;20404;-88
2023/10/04 01:24:14;;;;;;;;;;;;;;;;;;6176495;23;19931;-87
2023/10/04 01:26:41;;;;;;;;;;;;;;;;;;6174060;23;19920;-87
2023/10/04 01:29:10;;;;;;;;;;;;;;;;;;6175796;23;19916;-87
2023/10/04 01:31:36;;;;;;;;;;;;;;;;;;6173758;23;19920;-87
2023/10/04 01:34:02;;;;;;;;;;;;;;;;;;6176152;23;19920;-87
2023/10/04 01:36:31;;;;;;;;;;;;;;;;;;6200172;23;19954;-88
2023/10/04 01:38:57;;;;;;;;;;;;;;;;;;6150158;23;19927;-88
2023/10/04 01:41:24;;;;;;;;;;;;;;;;;;6203527;23;19920;-87
2023/10/04 01:43:53;;;;;;;;;;;;;;;;;;6173462;23;20002;-87
2023/10/04 01:46:19;;;;;;;;;;;;;;;;;;6202833;23;19919;-87
2023/10/04 01:48:45;;;;;;;;;;;;;;;;;;6173477;23;20369;-87
2023/10/04 01:51:12;;;;;;;;;;;;;;;;;;6177312;23;19981;-87
2023/10/04 01:53:42;;;;;;;;;;;;;;;;;;6150227;23;19920;-87
2023/10/04 01:56:08;;;;;;;;;;;;;;;;;;6177503;23;19927;-87
2023/10/04 01:58:34;;;;;;;;;;;;;;;;;;6172568;23;19920;-87
2023/10/04 02:01:00;;;;;;;;;;;;;;;;;;6150594;23;20285;-88
2023/10/04 02:03:27;;;;;;;;;;;;;;;;;;6150483;23;20219;-88
2023/10/04 02:05:56;;;;;;;;;;;;;;;;;;6149498;23;20241;-87
2023/10/04 02:08:22;;;;;;;;;;;;;;;;;;6203224;23;19931;-87
2023/10/04 02:10:50;;;;;;;;;;;;;;;;;;6201031;23;19920;-87
2023/10/04 02:13:17;;;;;;;;;;;;;;;;;;6203451;23;20345;-87
2023/10/04 02:15:44;;;;;;;;;;;;;;;;;;6148564;23;19923;-87
2023/10/04 02:18:10;;;;;;;;;;;;;;;;;;6177290;23;19920;-87
2023/10/04 02:20:36;;;;;;;;;;;;;;;;;;6151013;23;19926;-88
2023/10/04 02:23:03;;;;;;;;;;;;;;;;;;6176321;23;20366;-87
2023/10/04 02:25:29;;;;;;;;;;;;;;;;;;6176709;23;19962;-87
2023/10/04 02:28:01;;;;;;;;;;;;;;;;;;6149488;23;20338;-88
2023/10/04 02:30:27;;;;;;;;;;;;;;;;;;6149359;23;19924;-88
2023/10/04 02:32:52;;;;;;;;;;;;;;;;;;6173584;23;19935;-88
2023/10/04 02:35:30;;;;;;;;;;;;;;;;;;6174756;23;19926;-88
2023/10/04 02:37:59;;;;;;;;;;;;;;;;;;6176339;23;19927;-88
2023/10/04 02:40:27;;;;;;;;;;;;;;;;;;6176146;23;19920;-87
2023/10/04 02:42:58;;;;;;;;;;;;;;;;;;6172941;23;19927;-87
2023/10/04 02:45:24;;;;;;;;;;;;;;;;;;6174429;23;19924;-87
2023/10/04 02:47:51;;;;;;;;;;;;;;;;;;6174830;23;19997;-88
2023/10/04 02:50:17;;;;;;;;;;;;;;;;;;6174514;23;19926;-87
2023/10/04 02:52:44;;;;;;;;;;;;;;;;;;6149780;23;20248;-87
2023/10/04 02:55:14;;;;;;;;;;;;;;;;;;6176816;23;19919;-87
2023/10/04 02:57:40;;;;;;;;;;;;;;;;;;6145474;23;19926;-88
2023/10/04 03:00:11;;;;;;;;;;;;;;;;;;6174657;23;19920;-87
2023/10/04 03:02:38;;;;;;;;;;;;;;;;;;6148801;23;20257;-88
2023/10/04 03:05:05;;;;;;;;;;;;;;;;;;6170716;23;19924;-88
2023/10/04 03:07:33;;;;;;;;;;;;;;;;;;6169291;23;20039;-88
2023/10/04 03:09:59;;;;;;;;;;;;;;;;;;6147363;23;19920;-88
2023/10/04 03:12:28;;;;;;;;;;;;;;;;;;6170725;23;19966;-87
2023/10/04 03:14:56;;;;;;;;;;;;;;;;;;6145690;23;19917;-88
2023/10/04 03:17:22;;;;;;;;;;;;;;;;;;6169089;23;19924;-87
2023/10/04 03:19:48;;;;;;;;;;;;;;;;;;6143989;23;20343;-88
2023/10/04 03:22:19;;;;;;;;;;;;;;;;;;6147062;23;19920;-88
2023/10/04 03:24:46;;;;;;;;;;;;;;;;;;6167362;23;19931;-88
2023/10/04 03:27:12;;;;;;;;;;;;;;;;;;6170979;23;19920;-88
2023/10/04 03:29:39;;;;;;;;;;;;;;;;;;6141323;23;19991;-87
2023/10/04 03:32:05;;;;;;;;;;;;;;;;;;6170688;23;19920;-87
2023/10/04 03:34:32;;;;;;;;;;;;;;;;;;6169209;23;19943;-88
2023/10/04 03:37:08;;;;;;;;;;;;;;;;;;6172898;23;19928;-88
2023/10/04 03:39:35;;;;;;;;;;;;;;;;;;6171723;23;19998;-88
2023/10/04 03:42:01;;;;;;;;;;;;;;;;;;6174179;23;19920;-88
2023/10/04 03:44:30;;;;;;;;;;;;;;;;;;6146218;23;19946;-88
2023/10/04 03:46:57;;;;;;;;;;;;;;;;;;6146667;23;19927;-88
2023/10/04 03:49:22;;;;;;;;;;;;;;;;;;6171164;23;19924;-88
2023/10/04 03:51:56;;;;;;;;;;;;;;;;;;6144846;23;20356;-87
2023/10/04 03:54:22;;;;;;;;;;;;;;;;;;6173348;23;19961;-88
2023/10/04 03:56:49;;;;;;;;;;;;;;;;;;6145046;23;20124;-87
2023/10/04 03:59:16;;;;;;;;;;;;;;;;;;6172256;23;20753;-88
2023/10/04 04:01:42;;;;;;;;;;;;;;;;;;6144440;23;19924;-87
2023/10/04 04:04:14;;;;;;;;;;;;;;;;;;6171890;23;19927;-88
2023/10/04 04:06:40;;;;;;;;;;;;;;;;;;6143984;23;19920;-88
2023/10/04 04:09:09;;;;;;;;;;;;;;;;;;6147126;23;19927;-88
2023/10/04 04:11:35;;;;;;;;;;;;;;;;;;6170407;23;20353;-88
2023/10/04 04:14:01;;;;;;;;;;;;;;;;;;6172231;23;19928;-88
2023/10/04 04:16:27;;;;;;;;;;;;;;;;;;6173064;23;19927;-88
2023/10/04 04:18:56;;;;;;;;;;;;;;;;;;6168450;23;19928;-88
2023/10/04 04:21:25;;;;;;;;;;;;;;;;;;6170676;23;20313;-88
2023/10/04 04:23:51;;;;;;;;;;;;;;;;;;6142477;23;19920;-88
2023/10/04 04:26:20;;;;;;;;;;;;;;;;;;6173418;23;19920;-88
2023/10/04 04:28:49;;;;;;;;;;;;;;;;;;6169359;23;20434;-88
2023/10/04 04:31:15;;;;;;;;;;;;;;;;;;6172081;23;19948;-88
2023/10/04 04:33:41;;;;;;;;;;;;;;;;;;6144806;23;19916;-88
2023/10/04 04:36:17;;;;;;;;;;;;;;;;;;6171485;23;20463;-88
2023/10/04 04:38:45;;;;;;;;;;;;;;;;;;6165682;23;19921;-88
2023/10/04 04:41:16;;;;;;;;;;;;;;;;;;6148169;23;19923;-88
2023/10/04 04:43:43;;;;;;;;;;;;;;;;;;6169966;23;19920;-88
2023/10/04 04:46:13;;;;;;;;;;;;;;;;;;6145438;23;20348;-88
2023/10/04 04:48:39;;;;;;;;;;;;;;;;;;6166999;23;19921;-88
2023/10/04 04:51:15;;;;;;;;;;;;;;;;;;6146280;23;19921;-88
2023/10/04 04:53:41;;;;;;;;;;;;;;;;;;6164864;23;20391;-88
2023/10/04 04:56:12;;;;;;;;;;;;;;;;;;6171839;23;19920;-88
2023/10/04 04:58:38;;;;;;;;;;;;;;;;;;6169301;23;19916;-88
2023/10/04 05:01:09;;;;;;;;;;;;;;;;;;6171851;23;20491;-88
2023/10/04 05:03:35;;;;;;;;;;;;;;;;;;6168235;23;19928;-88
2023/10/04 05:06:01;;;;;;;;;;;;;;;;;;6172384;23;19920;-88
2023/10/04 05:08:27;;;;;;;;;;;;;;;;;;6145619;23;19974;-88
2023/10/04 05:10:54;;;;;;;;;;;;;;;;;;6143524;23;19924;-88
2023/10/04 05:13:20;;;;;;;;;;;;;;;;;;6146922;23;20092;-88
2023/10/04 05:15:46;;;;;;;;;;;;;;;;;;6145713;23;19920;-88
2023/10/04 05:18:16;;;;;;;;;;;;;;;;;;6144868;23;19960;-88
2023/10/04 05:20:42;;;;;;;;;;;;;;;;;;6145136;23;19921;-87
2023/10/04 05:23:09;;;;;;;;;;;;;;;;;;6146946;23;19975;-87
2023/10/04 05:25:35;;;;;;;;;;;;;;;;;;6142268;23;19927;-88
2023/10/04 05:28:03;;;;;;;;;;;;;;;;;;6146200;23;19924;-87
2023/10/04 05:30:29;;;;;;;;;;;;;;;;;;6119448;23;19924;-88
2023/10/04 05:32:58;;;;;;;;;;;;;;;;;;6122515;23;20768;-88
2023/10/04 05:35:24;;;;;;;;;;;;;;;;;;6122139;23;19920;-88
2023/10/04 05:37:50;;;;;;;;;;;;;;;;;;6143972;23;19920;-88
2023/10/04 05:40:16;;;;;;;;;;;;;;;;;;6119490;23;19920;-89
2023/10/04 05:42:42;;;;;;;;;;;;;;;;;;6144142;23;19930;-87
2023/10/04 05:45:09;;;;;;;;;;;;;;;;;;6143022;23;19916;-87
2023/10/04 05:47:37;;;;;;;;;;;;;;;;;;6140273;23;19951;-87
2023/10/04 05:50:05;;;;;;;;;;;;;;;;;;6144183;23;19966;-87
2023/10/04 05:52:32;;;;;;;;;;;;;;;;;;6140603;23;19920;-87
2023/10/04 05:54:59;;;;;;;;;;;;;;;;;;6143096;23;20359;-87
2023/10/04 05:57:25;;;;;;;;;;;;;;;;;;6141295;23;20337;-87
2023/10/04 05:59:51;;;;;;;;;;;;;;;;;;6142412;23;19967;-87
2023/10/04 06:02:17;;;;;;;;;;;;;;;;;;6143493;23;19978;-87
2023/10/04 06:04:43;;;;;;;;;;;;;;;;;;6135245;23;19934;-87
2023/10/04 06:07:09;;;;;;;;;;;;;;;;;;6145229;23;19921;-87
2023/10/04 06:09:42;;;;;;;;;;;;;;;;;;6113059;23;19920;-87
2023/10/04 06:12:07;;;;;;;;;;;;;;;;;;6115009;23;19936;-87
2023/10/04 06:14:35;;;;;;;;;;;;;;;;;;6137405;23;20257;-87
2023/10/04 06:17:01;;;;;;;;;;;;;;;;;;6137925;23;19920;-87
2023/10/04 06:19:28;;;;;;;;;;;;;;;;;;6136991;23;20681;-87
2023/10/04 06:21:54;;;;;;;;;;;;;;;;;;6112894;23;19996;-87
2023/10/04 06:24:20;;;;;;;;;;;;;;;;;;6119068;23;20433;-87
2023/10/04 06:26:49;;;;;;;;;;;;;;;;;;6136583;23;20258;-87
2023/10/04 06:29:14;;;;;;;;;;;;;;;;;;6140721;23;19924;-87
2023/10/04 06:31:41;;;;;;;;;;;;;;;;;;6134959;23;19921;-87
2023/10/04 06:34:09;;;;;;;;;;;;;;;;;;6115523;23;20365;-87
2023/10/04 06:36:35;;;;;;;;;;;;;;;;;;6134398;23;19921;-88
2023/10/04 06:39:01;;;;;;;;;;;;;;;;;;6140508;23;19947;-87
2023/10/04 06:41:30;;;;;;;;;;;;;;;;;;6141010;23;20009;-87
2023/10/04 06:43:56;;;;;;;;;;;;;;;;;;6109759;23;19924;-87
2023/10/04 06:46:22;;;;;;;;;;;;;;;;;;6117550;23;20300;-88
2023/10/04 06:48:48;;;;;;;;;;;;;;;;;;6111324;23;20493;-87
2023/10/04 06:51:14;;;;;;;;;;;;;;;;;;6114472;23;20631;-87
2023/10/04 06:53:43;;;;;;;;;;;;;;;;;;6109878;23;19921;-87
2023/10/04 06:56:09;;;;;;;;;;;;;;;;;;6116549;23;20011;-87
2023/10/04 06:58:35;;;;;;;;;;;;;;;;;;6109673;23;20334;-88
2023/10/04 07:01:01;;;;;;;;;;;;;;;;;;6114626;23;19927;-87
2023/10/04 07:03:29;;;;;;;;;;;;;;;;;;6109027;23;20331;-88
2023/10/04 07:05:55;;;;;;;;;;;;;;;;;;6112944;23;19925;-87
2023/10/04 07:08:21;;;;;;;;;;;;;;;;;;6120267;23;19928;-87
2023/10/04 07:10:47;;;;;;;;;;;;;;;;;;6116033;23;19921;-87
2023/10/04 07:13:13;;;;;;;;;;;;;;;;;;6142943;23;19932;-87
2023/10/04 07:15:44;;;;;;;;;;;;;;;;;;6114722;23;19927;-87
2023/10/04 07:18:10;;;;;;;;;;;;;;;;;;6142446;23;19944;-87
2023/10/04 07:20:36;;;;;;;;;;;;;;;;;;6137113;23;19963;-87
2023/10/04 07:23:07;;;;;;;;;;;;;;;;;;6115607;23;20349;-87
2023/10/04 07:25:34;;;;;;;;;;;;;;;;;;6113727;23;19972;-87
2023/10/04 07:28:01;;;;;;;;;;;;;;;;;;6116602;23;19967;-87
2023/10/04 07:30:27;;;;;;;;;;;;;;;;;;6121273;23;20031;-87
2023/10/04 07:32:53;;;;;;;;;;;;;;;;;;6117955;23;19927;-87
2023/10/04 07:35:20;;;;;;;;;;;;;;;;;;6117570;23;19920;-87
2023/10/04 07:37:46;;;;;;;;;;;;;;;;;;6114058;23;19921;-87
2023/10/04 07:40:15;;;;;;;;;;;;;;;;;;6117631;23;19971;-87
2023/10/04 07:42:41;;;;;;;;;;;;;;;;;;6138923;23;19921;-87
2023/10/04 07:45:07;;;;;;;;;;;;;;;;;;6141045;23;20290;-87
2023/10/04 07:47:33;;;;;;;;;;;;;;;;;;6113701;23;19921;-87
2023/10/04 07:49:59;;;;;;;;;;;;;;;;;;6115809;23;20405;-87
2023/10/04 07:52:25;;;;;;;;;;;;;;;;;;6117081;23;19999;-87
2023/10/04 07:54:53;;;;;;;;;;;;;;;;;;6114456;23;19952;-87
2023/10/04 07:57:22;;;;;;;;;;;;;;;;;;6120930;23;19995;-87
2023/10/04 07:59:48;;;;;;;;;;;;;;;;;;6136819;23;19986;-87
2023/10/04 08:02:17;;;;;;;;;;;;;;;;;;6117453;23;19991;-87
2023/10/04 08:04:45;;;;;;;;;;;;;;;;;;6136642;23;20249;-87
2023/10/04 08:07:12;;;;;;;;;;;;;;;;;;6117856;23;19921;-87
2023/10/04 08:09:38;;;;;;;;;;;;;;;;;;6110284;23;19924;-87
2023/10/04 08:12:07;;;;;;;;;;;;;;;;;;6117396;23;19920;-87
2023/10/04 08:14:33;;;;;;;;;;;;;;;;;;6112734;23;20004;-87
2023/10/04 08:16:59;;;;;;;;;;;;;;;;;;6141916;23;19952;-87
2023/10/04 08:19:26;;;;;;;;;;;;;;;;;;6121737;23;19975;-87
2023/10/04 08:21:55;;;;;;;;;;;;;;;;;;6110480;23;20015;-87
2023/10/04 08:24:21;;;;;;;;;;;;;;;;;;6168426;23;20272;-87
2023/10/04 08:26:49;;;;;;;;;;;;;;;;;;6109120;23;19927;-87
2023/10/04 08:29:15;;;;;;;;;;;;;;;;;;6144770;23;19927;-86
2023/10/04 08:31:41;;;;;;;;;;;;;;;;;;6170026;23;19920;-87
2023/10/04 08:34:07;;;;;;;;;;;;;;;;;;6172817;23;19920;-87
2023/10/04 08:36:33;;;;;;;;;;;;;;;;;;6138796;23;19920;-87
2023/10/04 08:39:10;;;;;;;;;;;;;;;;;;6137617;23;19920;-87
2023/10/04 08:41:36;;;;;;;;;;;;;;;;;;6142530;23;20226;-87
2023/10/04 08:44:05;;;;;;;;;;;;;;;;;;6120850;23;19994;-87
2023/10/04 08:46:32;;;;;;;;;;;;;;;;;;6139263;23;19921;-87
2023/10/04 08:48:58;;;;;;;;;;;;;;;;;;6140038;23;19927;-87
2023/10/04 08:51:27;;;;;;;;;;;;;;;;;;6120630;23;20334;-87
2023/10/04 08:53:55;;;;;;;;;;;;;;;;;;6138209;23;19928;-87
2023/10/04 08:56:21;;;;;;;;;;;;;;;;;;6120191;23;19966;-87
2023/10/04 08:58:47;;;;;;;;;;;;;;;;;;6113460;23;19932;-87
2023/10/04 09:01:16;;;;;;;;;;;;;;;;;;6117406;23;19960;-87
2023/10/04 09:03:42;;;;;;;;;;;;;;;;;;6137265;23;19924;-87
2023/10/04 09:06:10;;;;;;;;;;;;;;;;;;6141835;23;19920;-87
2023/10/04 09:08:36;;;;;;;;;;;;;;;;;;6112752;23;19921;-87
2023/10/04 09:11:08;;;;;;;;;;;;;;;;;;6116087;23;19987;-87
2023/10/04 09:13:34;;;;;;;;;;;;;;;;;;6137986;23;19956;-87
2023/10/04 09:16:00;;;;;;;;;;;;;;;;;;6117046;23;19948;-86
2023/10/04 09:18:26;;;;;;;;;;;;;;;;;;6158344;23;19955;-87
2023/10/04 11:19:35;;;;;;;;;;;;;;;;;;6216163;22;20398;-89
2023/10/04 11:22:10;;;;;;;;;;;;;;;;;;6202183;23;19941;-90
2023/10/04 11:24:40;;;;;;;;;;;;;;;;;;6201243;23;19969;-90
2023/10/04 11:27:09;;;;;;;;;;;;;;;;;;6200698;23;19920;-90
2023/10/04 11:29:38;;;;;;;;;;;;;;;;;;6175235;23;19923;-90
2023/10/04 11:32:06;;;;;;;;;;;;;;;;;;6178734;23;20328;-91
2023/10/04 11:34:32;;;;;;;;;;;;;;;;;;6202910;23;20507;-90
2023/10/04 11:37:08;;;;;;;;;;;;;;;;;;6202932;23;19973;-90
2023/10/04 11:39:42;;;;;;;;;;;;;;;;;;6227062;23;19980;-90
2023/10/04 11:42:10;;;;;;;;;;;;;;;;;;6201148;23;20014;-89
2023/10/04 11:44:50;;;;;;;;;;;;;;;;;;6226853;23;19963;-89
2023/10/04 11:47:19;;;;;;;;;;;;;;;;;;6177009;23;19919;-90
2023/10/04 11:49:56;;;;;;;;;;;;;;;;;;;;;
2023/10/04 11:52:36;;;;;;;;;;;;;;;;;;6202969;23;19920;-90
2023/10/04 11:55:07;;;;;;;;;;;;;;;;;;6178704;23;19919;-90
2023/10/04 11:57:51;;;;;;;;;;;;;;;;;;;;;
2023/10/04 12:00:26;;;;;;;;;;;;;;;;;;6166937;23;19919;-90
2023/10/04 12:02:59;;;;;;;;;;;;;;;;;;6191129;23;20433;-89
2023/10/04 12:05:38;;;;;;;;;;;;;;;;;;6178852;23;19923;-90
2023/10/04 12:08:10;;;;;;;;;;;;;;;;;;6204467;23;19919;-90
2023/10/04 12:10:40;;;;;;;;;;;;;;;;;;6202764;23;20555;-90
2023/10/04 12:13:26;;;;;;;;;;;;;;;;;;6207529;23;20353;-90
2023/10/04 12:15:57;;;;;;;;;;;;;;;;;;6192049;23;19915;-90
2023/10/04 12:18:24;;;;;;;;;;;;;;;;;;6173762;23;20394;-89
2023/10/04 12:23:51;;;;;;;;;;;;;;;;;;6208208;23;20281;-90
2023/10/04 12:26:20;;;;;;;;;;;;;;;;;;6178464;23;19926;-89
2023/10/04 12:28:48;;;;;;;;;;;;;;;;;;6196503;23;19919;-90
2023/10/04 12:31:15;;;;;;;;;;;;;;;;;;6172589;23;20149;-90
2023/10/04 12:33:46;;;;;;;;;;;;;;;;;;6193256;23;19947;-90
2023/10/04 12:36:20;;;;;;;;;;;;;;;;;;6197852;23;19977;-89
2023/10/04 12:38:47;;;;;;;;;;;;;;;;;;6140402;23;20404;-89
2023/10/04 12:41:42;;;;;;;;;;;;;;;;;;;;;
2023/10/04 12:44:09;;;;;;;;;;;;;;;;;;6160472;23;19927;-89
2023/10/04 12:46:37;;;;;;;;;;;;;;;;;;6163509;23;19969;-90
2023/10/04 12:49:08;;;;;;;;;;;;;;;;;;6166072;23;19920;-90
2023/10/04 12:51:35;;;;;;;;;;;;;;;;;;6163988;23;19995;-91
2023/10/04 12:54:03;;;;;;;;;;;;;;;;;;6164676;23;19920;-90
2023/10/04 12:56:29;;;;;;;;;;;;;;;;;;6161186;23;20035;-90
2023/10/04 12:58:56;;;;;;;;;;;;;;;;;;6166653;23;19959;-89
2023/10/04 13:01:24;;;;;;;;;;;;;;;;;;6166682;23;20003;-90
2023/10/04 13:03:53;;;;;;;;;;;;;;;;;;6159802;23;20027;-90
2023/10/04 13:06:20;;;;;;;;;;;;;;;;;;6166959;23;19924;-90
2023/10/04 13:08:47;;;;;;;;;;;;;;;;;;6168722;23;20289;-90
2023/10/04 13:11:14;;;;;;;;;;;;;;;;;;6201782;23;19920;-90
2023/10/04 13:13:42;;;;;;;;;;;;;;;;;;6198605;23;19920;-90
2023/10/04 13:16:12;;;;;;;;;;;;;;;;;;6177103;23;19923;-90
2023/10/04 13:18:41;;;;;;;;;;;;;;;;;;6141552;23;19963;-90
2023/10/04 13:21:10;;;;;;;;;;;;;;;;;;6168494;23;19952;-90
2023/10/04 13:23:53;;;;;;;;;;;;;;;;;;6122613;23;19920;-89
2023/10/04 13:26:23;;;;;;;;;;;;;;;;;;6167425;23;19925;-90
2023/10/04 13:28:59;;;;;;;;;;;;;;;;;;6169551;23;19924;-90
2023/10/04 13:31:42;;;;;;;;;;;;;;;;;;6168428;23;20264;-90
2023/10/04 13:34:10;;;;;;;;;;;;;;;;;;6167583;23;19967;-89
2023/10/04 13:36:52;;;;;;;;;;;;;;;;;;6162483;23;19927;-90
2023/10/04 13:39:29;;;;;;;;;;;;;;;;;;;;;
2023/10/04 13:45:13;;;;;;;;;;;;;;;;;;;;;
2023/10/04 13:56:53;;;;;;;;;;;;;;;;;;;;;
2023/10/04 13:59:43;;;;;;;;;;;;;;;;;;6194603;23;19920;-89
2023/10/04 14:02:38;;;;;;;;;;;;;;;;;;6167218;23;20017;-90
2023/10/04 14:05:18;;;;;;;;;;;;;;;;;;;;;
2023/10/04 14:11:36;;;;;;;;;;;;;;;;;;6071141;23;20317;-89
2023/10/04 14:17:16;;;;;;;;;;;;;;;;;;6201501;23;19920;-90
2023/10/04 14:19:43;;;;;;;;;;;;;;;;;;6167228;23;19987;-91
2023/10/04 14:22:25;;;;;;;;;;;;;;;;;;6171427;23;19970;-90
2023/10/04 14:25:09;;;;;;;;;;;;;;;;;;;;;
2023/10/04 14:30:52;;;;;;;;;;;;;;;;;;;;;
2023/10/04 14:39:59;;;;;;;;;;;;;;;;;;6195774;23;20374;-90
2023/10/04 14:42:36;;;;;;;;;;;;;;;;;;6194446;23;19920;-90
2023/10/04 14:45:34;;;;;;;;;;;;;;;;;;;;;
2023/10/04 14:48:03;;;;;;;;;;;;;;;;;;6198527;23;19920;-90
2023/10/04 14:50:38;;;;;;;;;;;;;;;;;;6192778;23;19966;-90
2023/10/04 14:53:06;;;;;;;;;;;;;;;;;;6193084;23;19931;-90
2023/10/04 14:55:33;;;;;;;;;;;;;;;;;;6194784;23;19920;-90
2023/10/04 14:58:18;;;;;;;;;;;;;;;;;;6174294;23;20331;-90
2023/10/04 15:00:47;;;;;;;;;;;;;;;;;;6138076;23;20015;-90
2023/10/04 15:03:18;;;;;;;;;;;;;;;;;;6165892;23;19930;-90
2023/10/04 15:05:49;;;;;;;;;;;;;;;;;;6139596;23;20071;-90
2023/10/04 15:08:23;;;;;;;;;;;;;;;;;;6140471;23;19927;-89
2023/10/04 15:13:55;;;;;;;;;;;;;;;;;;6097761;23;19921;-90
2023/10/04 15:19:20;;;;;;;;;;;;;;;;;;6074354;23;19931;-89
2023/10/04 15:21:47;;;;;;;;;;;;;;;;;;6080470;23;20019;-89
2023/10/04 15:24:18;;;;;;;;;;;;;;;;;;6082072;23;19928;-90
2023/10/04 15:26:49;;;;;;;;;;;;;;;;;;6078555;23;20294;-89
2023/10/04 15:29:21;;;;;;;;;;;;;;;;;;6085152;23;19992;-90
2023/10/04 15:31:59;;;;;;;;;;;;;;;;;;6136407;23;19920;-90
2023/10/04 15:34:33;;;;;;;;;;;;;;;;;;6140721;23;19927;-89
2023/10/04 15:37:03;;;;;;;;;;;;;;;;;;6116254;23;19932;-89
2023/10/04 15:39:41;;;;;;;;;;;;;;;;;;6141680;23;20071;-90
2023/10/04 15:42:10;;;;;;;;;;;;;;;;;;6141145;23;19931;-89
2023/10/04 15:44:40;;;;;;;;;;;;;;;;;;6163376;23;19935;-89
2023/10/04 15:47:21;;;;;;;;;;;;;;;;;;;;;
2023/10/04 15:49:48;;;;;;;;;;;;;;;;;;6169060;23;19927;-89
2023/10/04 15:52:26;;;;;;;;;;;;;;;;;;;;;
2023/10/04 15:54:56;;;;;;;;;;;;;;;;;;6164539;23;19927;-89
2023/10/04 15:57:26;;;;;;;;;;;;;;;;;;6143896;23;19920;-89
2023/10/04 15:59:59;;;;;;;;;;;;;;;;;;6144202;23;19926;-89
2023/10/04 16:02:34;;;;;;;;;;;;;;;;;;6170069;23;19920;-90
2023/10/04 16:05:01;;;;;;;;;;;;;;;;;;6140910;23;19924;-89
2023/10/04 16:10:34;;;;;;;;;;;;;;;;;;6150893;23;19920;-89
2023/10/04 16:13:05;;;;;;;;;;;;;;;;;;6140753;23;19995;-89
2023/10/04 16:15:44;;;;;;;;;;;;;;;;;;;;;
2023/10/04 16:18:39;;;;;;;;;;;;;;;;;;6179041;23;19962;-89
2023/10/04 16:21:34;;;;;;;;;;;;;;;;;;;;;
2023/10/04 16:24:05;;;;;;;;;;;;;;;;;;6203220;23;19927;-89
2023/10/04 16:26:35;;;;;;;;;;;;;;;;;;6174491;23;20252;-90
2023/10/04 16:29:09;;;;;;;;;;;;;;;;;;6203201;23;19920;-90
2023/10/04 16:32:06;;;;;;;;;;;;;;;;;;6200336;23;19920;-89
2023/10/04 16:35:16;;;;;;;;;;;;;;;;;;6202705;23;19930;-89
2023/10/04 16:37:34;;;;;;;;;;;;;;;;;;6197224;23;19920;-90
2023/10/04 16:40:12;;;;;;;;;;;;;;;;;;6203512;23;19920;-89
2023/10/04 16:42:49;;;;;;;;;;;;;;;;;;6176825;23;19919;-90
2023/10/04 16:48:30;;;;;;;;;;;;;;;;;;6203213;23;20355;-89
2023/10/04 16:51:07;;;;;;;;;;;;;;;;;;6203471;23;19927;-89
2023/10/04 16:53:34;;;;;;;;;;;;;;;;;;6200020;23;19962;-89
2023/10/04 16:56:17;;;;;;;;;;;;;;;;;;6179900;23;20010;-89
2023/10/04 16:59:17;;;;;;;;;;;;;;;;;;6197500;23;19915;-89
2023/10/04 17:01:43;;;;;;;;;;;;;;;;;;6186590;23;20296;-88
2023/10/04 17:04:20;;;;;;;;;;;;;;;;;;6200750;23;19923;-89
2023/10/04 17:06:59;;;;;;;;;;;;;;;;;;6200017;23;19994;-89
2023/10/04 17:09:26;;;;;;;;;;;;;;;;;;6177419;23;19915;-89
2023/10/04 17:11:53;;;;;;;;;;;;;;;;;;6200386;23;19927;-89
2023/10/04 17:14:19;;;;;;;;;;;;;;;;;;6202393;23;19991;-89
2023/10/04 17:16:49;;;;;;;;;;;;;;;;;;6175073;23;20245;-89
2023/10/04 17:19:19;;;;;;;;;;;;;;;;;;6176825;23;19955;-89
2023/10/04 17:21:45;;;;;;;;;;;;;;;;;;6174089;23;19955;-89
2023/10/04 17:24:28;;;;;;;;;;;;;;;;;;6202999;23;20333;-89
2023/10/04 17:26:59;;;;;;;;;;;;;;;;;;6202172;23;20300;-88
2023/10/04 17:29:26;;;;;;;;;;;;;;;;;;6178151;23;19923;-89
2023/10/04 17:32:03;;;;;;;;;;;;;;;;;;6202956;23;19920;-89
2023/10/04 17:34:44;;;;;;;;;;;;;;;;;;6201942;23;20329;-89
2023/10/04 17:37:17;;;;;;;;;;;;;;;;;;6203239;23;19927;-89
2023/10/04 17:40:06;;;;;;;;;;;;;;;;;;6200759;23;19926;-90
2023/10/04 17:45:54;;;;;;;;;;;;;;;;;;6199735;23;20652;-89
2023/10/04 17:49:09;;;;;;;;;;;;;;;;;;;;;
2023/10/04 18:07:12;;;;;;;;;;;;;;;;;;5943080;24;20340;-89
2023/10/04 18:19:33;;;;;;;;;;;;;;;;;;5852655;24;19935;-90
2023/10/04 18:25:05;;;;;;;;;;;;;;;;;;5866342;24;19934;-90
2023/10/04 18:31:16;;;;;;;;;;;;;;;;;;;;;
2023/10/04 18:33:52;;;;;;;;;;;;;;;;;;5898072;24;20421;-89
2023/10/04 18:43:26;;;;;;;;;;;;;;;;;;;;;
2023/10/04 18:46:36;;;;;;;;;;;;;;;;;;5877372;24;19933;-89
2023/10/04 18:49:24;;;;;;;;;;;;;;;;;;;;;
2023/10/04 18:51:51;;;;;;;;;;;;;;;;;;5856064;24;19935;-90
2023/10/04 18:54:32;;;;;;;;;;;;;;;;;;5881539;24;19920;-89
2023/10/04 18:57:07;;;;;;;;;;;;;;;;;;5882160;24;19919;-90
2023/10/04 18:59:53;;;;;;;;;;;;;;;;;;;;;
2023/10/04 19:02:26;;;;;;;;;;;;;;;;;;5917838;24;20022;-90
2023/10/04 19:05:14;;;;;;;;;;;;;;;;;;5922972;24;19926;-90
2023/10/04 19:16:54;;;;;;;;;;;;;;;;;;6025473;23;19928;-89
2023/10/04 19:19:50;;;;;;;;;;;;;;;;;;;;;
2023/10/04 19:22:37;;;;;;;;;;;;;;;;;;6166902;23;20726;-90
2023/10/04 19:25:10;;;;;;;;;;;;;;;;;;6146319;23;20039;-90
2023/10/04 19:27:43;;;;;;;;;;;;;;;;;;6145536;23;19920;-91
2023/10/04 19:30:51;;;;;;;;;;;;;;;;;;6151016;23;19930;-89
2023/10/04 19:36:51;;;;;;;;;;;;;;;;;;6169970;23;19920;-90
2023/10/04 19:42:37;;;;;;;;;;;;;;;;;;6122822;23;19970;-88
2023/10/04 19:45:21;;;;;;;;;;;;;;;;;;6140924;23;20022;-88
2023/10/04 19:51:00;;;;;;;;;;;;;;;;;;6124289;23;19916;-89
2023/10/04 19:54:07;;;;;;;;;;;;;;;;;;;;;
2023/10/04 20:00:00;;;;;;;;;;;;;;;;;;6127115;23;19990;-88
2023/10/04 20:08:56;;;;;;;;;;;;;;;;;;6106400;23;20348;-88
2023/10/04 20:11:38;;;;;;;;;;;;;;;;;;6141510;23;19927;-89
2023/10/04 20:14:21;;;;;;;;;;;;;;;;;;;;;
2023/10/04 20:26:11;;;;;;;;;;;;;;;;;;6042591;23;20349;-90
2023/10/04 20:29:05;;;;;;;;;;;;;;;;;;6081489;23;19937;-89
2023/10/04 20:32:18;;;;;;;;;;;;;;;;;;6100838;23;19965;-90
2023/10/04 20:34:49;;;;;;;;;;;;;;;;;;6081397;23;20729;-89
2023/10/04 20:43:42;;;;;;;;;;;;;;;;;;5974617;24;19970;-90
2023/10/04 20:49:48;;;;;;;;;;;;;;;;;;;;;
2023/10/04 20:55:21;;;;;;;;;;;;;;;;;;6092118;23;19931;-89
2023/10/04 20:58:10;;;;;;;;;;;;;;;;;;6138830;23;20470;-89
2023/10/04 21:00:50;;;;;;;;;;;;;;;;;;;;;
2023/10/04 21:06:16;;;;;;;;;;;;;;;;;;6146427;23;19999;-89
2023/10/04 21:08:42;;;;;;;;;;;;;;;;;;6142998;22;19946;-85
2023/10/04 21:11:09;;;;;;;;;;;;;;;;;;6208591;23;19927;-85
2023/10/04 21:13:35;;;;;;;;;;;;;;;;;;6181154;23;20016;-86
2023/10/04 21:16:01;;;;;;;;;;;;;;;;;;6183488;23;20333;-86
2023/10/04 21:18:32;;;;;;;;;;;;;;;;;;6177788;23;19923;-86
2023/10/04 21:20:58;;;;;;;;;;;;;;;;;;6177628;23;19923;-86
2023/10/04 21:23:24;;;;;;;;;;;;;;;;;;6206911;23;19920;-86
2023/10/04 21:25:50;;;;;;;;;;;;;;;;;;6178259;23;20378;-86
2023/10/04 21:28:16;;;;;;;;;;;;;;;;;;6208132;23;19994;-86
2023/10/04 21:30:42;;;;;;;;;;;;;;;;;;6229649;23;19955;-86
2023/10/04 21:33:17;;;;;;;;;;;;;;;;;;6182137;23;20454;-86
2023/10/04 21:35:44;;;;;;;;;;;;;;;;;;6182265;23;19951;-86
2023/10/04 21:38:10;;;;;;;;;;;;;;;;;;6184018;23;19995;-86
2023/10/04 21:40:44;;;;;;;;;;;;;;;;;;6207192;23;20463;-86
2023/10/04 21:43:09;;;;;;;;;;;;;;;;;;6183846;23;19923;-86
2023/10/04 21:45:46;;;;;;;;;;;;;;;;;;6179462;23;19987;-86